createdAt,value
2017-10-26T00:00:05.493Z,0.00
2017-10-26T00:01:05.483Z,0.00
2017-10-26T00:02:05.475Z,0.00
2017-10-26T00:03:05.472Z,0.00
2017-10-26T00:04:05.460Z,0.00
2017-10-26T00:05:05.448Z,0.00
2017-10-26T00:06:05.441Z,0.00
2017-10-26T00:07:05.430Z,0.00
2017-10-26T00:08:05.424Z,0.00
2017-10-26T00:09:05.412Z,0.00
2017-10-26T00:10:05.405Z,0.00
2017-10-26T00:11:05.402Z,0.00
2017-10-26T00:12:05.387Z,0.00
2017-10-26T00:13:05.376Z,0.00
2017-10-26T00:14:05.369Z,0.00
2017-10-26T00:15:05.369Z,0.00
2017-10-26T00:16:05.352Z,0.00
2017-10-26T00:17:05.341Z,0.00
2017-10-26T00:18:05.334Z,0.00
2017-10-26T00:19:05.326Z,0.00
2017-10-26T00:20:05.321Z,0.00
2017-10-26T00:21:05.307Z,0.00
2017-10-26T00:22:05.299Z,0.00
2017-10-26T00:23:05.291Z,0.00
2017-10-26T00:24:05.282Z,0.00
2017-10-26T00:25:05.273Z,0.00
2017-10-26T00:26:05.264Z,0.00
2017-10-26T00:27:05.256Z,0.00
2017-10-26T00:28:05.249Z,0.00
2017-10-26T00:29:05.264Z,0.00
2017-10-26T00:30:05.231Z,0.00
2017-10-26T00:31:05.224Z,0.00
2017-10-26T00:32:05.211Z,0.00
2017-10-26T00:33:05.202Z,0.00
2017-10-26T00:34:05.193Z,0.00
2017-10-26T00:35:05.186Z,0.00
2017-10-26T00:36:05.177Z,0.00
2017-10-26T00:37:05.166Z,0.00
2017-10-26T00:38:05.166Z,0.00
2017-10-26T00:39:05.149Z,0.00
2017-10-26T00:40:05.141Z,0.00
2017-10-26T00:41:05.132Z,0.00
2017-10-26T00:42:05.122Z,0.00
2017-10-26T00:43:05.114Z,0.00
2017-10-26T00:44:05.109Z,0.00
2017-10-26T00:45:05.097Z,0.00
2017-10-26T00:46:05.092Z,0.00
2017-10-26T00:47:05.082Z,0.00
2017-10-26T00:48:05.078Z,0.00
2017-10-26T00:49:05.061Z,0.00
2017-10-26T00:50:05.051Z,0.00
2017-10-26T00:51:05.047Z,0.00
2017-10-26T00:52:05.036Z,0.00
2017-10-26T00:53:05.036Z,0.00
2017-10-26T00:54:05.018Z,0.00
2017-10-26T00:55:05.008Z,0.00
2017-10-26T00:56:05.002Z,0.00
2017-10-26T00:57:04.992Z,0.00
2017-10-26T00:58:04.982Z,0.00
2017-10-26T00:59:04.974Z,0.00
2017-10-26T01:00:04.966Z,0.00
2017-10-26T01:01:04.954Z,0.00
2017-10-26T01:02:04.957Z,0.00
2017-10-26T01:03:04.937Z,0.00
2017-10-26T01:04:04.932Z,0.00
2017-10-26T01:05:04.924Z,0.00
2017-10-26T01:06:04.913Z,0.00
2017-10-26T01:07:04.901Z,0.00
2017-10-26T01:08:04.898Z,0.00
2017-10-26T01:09:04.886Z,0.00
2017-10-26T01:10:04.876Z,0.00
2017-10-26T01:11:04.867Z,0.00
2017-10-26T01:12:04.857Z,0.00
2017-10-26T01:13:04.851Z,0.00
2017-10-26T01:14:04.840Z,0.00
2017-10-26T01:15:04.831Z,0.00
2017-10-26T01:16:04.822Z,0.00
2017-10-26T01:17:04.813Z,0.00
2017-10-26T01:18:04.816Z,0.00
2017-10-26T01:19:04.796Z,0.00
2017-10-26T01:20:04.815Z,0.00
2017-10-26T01:21:04.778Z,0.00
2017-10-26T01:22:04.770Z,0.00
2017-10-26T01:23:04.764Z,0.00
2017-10-26T01:24:04.760Z,0.00
2017-10-26T01:25:04.744Z,0.00
2017-10-26T01:26:04.732Z,0.00
2017-10-26T01:27:04.728Z,0.00
2017-10-26T01:28:04.730Z,0.00
2017-10-26T01:29:04.714Z,0.00
2017-10-26T01:30:04.699Z,0.00
2017-10-26T01:31:04.692Z,0.00
2017-10-26T01:32:04.698Z,0.00
2017-10-26T01:33:04.672Z,0.00
2017-10-26T01:34:04.663Z,0.00
2017-10-26T01:35:04.654Z,0.00
2017-10-26T01:36:04.647Z,0.00
2017-10-26T01:37:04.637Z,0.00
2017-10-26T01:38:04.627Z,0.00
2017-10-26T01:39:04.620Z,0.00
2017-10-26T01:40:04.616Z,0.00
2017-10-26T01:41:04.602Z,0.00
2017-10-26T01:42:04.592Z,0.00
2017-10-26T01:43:04.583Z,0.00
2017-10-26T01:44:04.575Z,0.00
2017-10-26T01:45:04.565Z,0.00
2017-10-26T01:46:04.557Z,0.00
2017-10-26T01:47:04.546Z,0.00
2017-10-26T01:48:04.539Z,0.00
2017-10-26T01:49:04.530Z,0.00
2017-10-26T01:50:04.519Z,0.00
2017-10-26T01:51:04.512Z,0.00
2017-10-26T01:52:04.505Z,0.00
2017-10-26T01:53:04.493Z,0.00
2017-10-26T01:54:04.487Z,0.00
2017-10-26T01:55:04.476Z,0.00
2017-10-26T01:56:04.467Z,0.00
2017-10-26T01:57:04.458Z,0.00
2017-10-26T01:58:04.457Z,0.00
2017-10-26T01:59:04.441Z,0.00
2017-10-26T02:00:04.434Z,0.00
2017-10-26T02:01:04.425Z,0.00
2017-10-26T02:02:04.416Z,0.00
2017-10-26T02:03:04.404Z,0.00
2017-10-26T02:04:04.396Z,0.00
2017-10-26T02:05:04.390Z,0.00
2017-10-26T02:06:04.379Z,0.00
2017-10-26T02:07:04.373Z,0.00
2017-10-26T02:08:04.390Z,0.00
2017-10-26T02:09:04.356Z,0.00
2017-10-26T02:10:04.346Z,0.00
2017-10-26T02:11:04.334Z,0.00
2017-10-26T02:12:04.326Z,0.00
2017-10-26T02:13:04.323Z,0.00
2017-10-26T02:14:04.314Z,0.00
2017-10-26T02:15:04.301Z,0.00
2017-10-26T02:16:04.291Z,0.00
2017-10-26T02:17:04.284Z,0.00
2017-10-26T02:18:04.276Z,0.00
2017-10-26T02:19:04.263Z,0.00
2017-10-26T02:20:04.259Z,0.00
2017-10-26T02:21:04.244Z,0.00
2017-10-26T02:22:04.235Z,0.00
2017-10-26T02:23:04.245Z,0.00
2017-10-26T02:24:04.220Z,0.00
2017-10-26T02:25:04.219Z,0.00
2017-10-26T02:26:04.201Z,0.00
2017-10-26T02:27:04.191Z,0.00
2017-10-26T02:28:04.184Z,0.00
2017-10-26T02:29:04.175Z,0.00
2017-10-26T02:30:04.165Z,0.00
2017-10-26T02:31:04.156Z,0.00
2017-10-26T02:32:04.147Z,0.00
2017-10-26T02:33:04.140Z,0.00
2017-10-26T02:34:04.140Z,0.00
2017-10-26T02:35:04.121Z,0.00
2017-10-26T02:36:04.114Z,0.00
2017-10-26T02:37:04.101Z,0.00
2017-10-26T02:38:04.094Z,0.00
2017-10-26T02:39:04.087Z,0.00
2017-10-26T02:40:04.076Z,0.00
2017-10-26T02:41:04.075Z,0.00
2017-10-26T02:42:04.060Z,0.00
2017-10-26T02:43:04.060Z,0.00
2017-10-26T02:44:04.044Z,0.00
2017-10-26T02:45:04.034Z,0.00
2017-10-26T02:46:04.024Z,0.00
2017-10-26T02:47:04.022Z,0.00
2017-10-26T02:48:04.006Z,0.00
2017-10-26T02:49:03.999Z,0.00
2017-10-26T02:50:03.988Z,0.00
2017-10-26T02:51:03.978Z,0.00
2017-10-26T02:52:03.970Z,0.00
2017-10-26T02:53:03.961Z,0.00
2017-10-26T02:54:03.956Z,0.00
2017-10-26T02:55:03.945Z,0.00
2017-10-26T02:56:03.941Z,0.00
2017-10-26T02:57:03.925Z,0.00
2017-10-26T02:58:03.922Z,0.00
2017-10-26T02:59:03.909Z,0.00
2017-10-26T03:00:03.904Z,0.00
2017-10-26T03:01:03.889Z,0.00
2017-10-26T03:02:03.880Z,0.00
2017-10-26T03:03:03.875Z,0.00
2017-10-26T03:04:03.864Z,0.00
2017-10-26T03:05:03.856Z,0.00
2017-10-26T03:06:03.848Z,0.00
2017-10-26T03:07:03.842Z,0.00
2017-10-26T03:08:03.829Z,0.00
2017-10-26T03:09:03.820Z,0.00
2017-10-26T03:10:03.815Z,0.00
2017-10-26T03:11:03.803Z,0.00
2017-10-26T03:12:03.793Z,0.00
2017-10-26T03:13:03.784Z,0.00
2017-10-26T03:14:03.775Z,0.00
2017-10-26T03:15:03.767Z,0.00
2017-10-26T03:16:03.758Z,0.00
2017-10-26T03:17:03.747Z,0.00
2017-10-26T03:18:03.740Z,0.00
2017-10-26T03:19:03.731Z,0.00
2017-10-26T03:20:03.724Z,0.00
2017-10-26T03:21:03.736Z,0.00
2017-10-26T03:22:03.704Z,0.00
2017-10-26T03:23:03.703Z,0.00
2017-10-26T03:24:03.689Z,0.00
2017-10-26T03:25:03.677Z,0.00
2017-10-26T03:26:03.669Z,0.00
2017-10-26T03:27:03.668Z,0.00
2017-10-26T03:28:03.655Z,0.00
2017-10-26T03:29:03.646Z,0.00
2017-10-26T03:30:03.639Z,0.00
2017-10-26T03:31:03.630Z,0.00
2017-10-26T03:32:03.615Z,0.00
2017-10-26T03:33:03.608Z,0.00
2017-10-26T03:34:03.598Z,0.00
2017-10-26T03:35:03.588Z,0.00
2017-10-26T03:36:03.584Z,0.00
2017-10-26T03:37:03.572Z,0.00
2017-10-26T03:38:03.564Z,0.00
2017-10-26T03:39:03.555Z,0.00
2017-10-26T03:40:03.553Z,0.00
2017-10-26T03:41:03.536Z,0.00
2017-10-26T03:42:03.528Z,0.00
2017-10-26T03:43:03.521Z,0.00
2017-10-26T03:44:03.511Z,0.00
2017-10-26T03:45:03.500Z,0.00
2017-10-26T03:46:03.494Z,0.00
2017-10-26T03:47:03.488Z,0.00
2017-10-26T03:48:03.476Z,0.00
2017-10-26T03:49:03.469Z,0.00
2017-10-26T03:50:03.465Z,0.00
2017-10-26T03:51:03.456Z,0.00
2017-10-26T03:52:03.441Z,0.00
2017-10-26T03:53:03.434Z,0.00
2017-10-26T03:54:03.423Z,0.00
2017-10-26T03:55:03.413Z,0.00
2017-10-26T03:56:03.406Z,0.00
2017-10-26T03:57:03.395Z,0.00
2017-10-26T03:58:03.386Z,0.00
2017-10-26T03:59:03.380Z,0.00
2017-10-26T04:00:03.371Z,0.00
2017-10-26T04:01:03.361Z,0.00
2017-10-26T04:02:03.351Z,0.00
2017-10-26T04:03:03.345Z,0.00
2017-10-26T04:04:03.334Z,0.00
2017-10-26T04:05:03.326Z,0.00
2017-10-26T04:06:03.317Z,0.00
2017-10-26T04:07:03.310Z,0.00
2017-10-26T04:08:03.299Z,0.00
2017-10-26T04:09:03.293Z,0.00
2017-10-26T04:10:03.283Z,0.00
2017-10-26T04:11:03.276Z,0.00
2017-10-26T04:12:03.265Z,0.00
2017-10-26T04:13:03.256Z,0.00
2017-10-26T04:14:03.246Z,0.00
2017-10-26T04:15:03.239Z,0.00
2017-10-26T04:16:03.230Z,0.00
2017-10-26T04:17:03.219Z,0.00
2017-10-26T04:18:03.214Z,0.00
2017-10-26T04:19:03.204Z,0.00
2017-10-26T04:20:03.206Z,0.00
2017-10-26T04:21:03.186Z,0.00
2017-10-26T04:22:03.181Z,0.00
2017-10-26T04:23:03.169Z,0.00
2017-10-26T04:24:03.158Z,0.00
2017-10-26T04:25:03.151Z,0.00
2017-10-26T04:26:03.148Z,0.00
2017-10-26T04:27:03.132Z,0.00
2017-10-26T04:28:03.124Z,0.00
2017-10-26T04:29:03.122Z,0.00
2017-10-26T04:30:03.107Z,0.00
2017-10-26T04:31:03.098Z,0.00
2017-10-26T04:32:03.089Z,0.00
2017-10-26T04:33:03.082Z,0.00
2017-10-26T04:34:03.070Z,0.00
2017-10-26T04:35:03.066Z,0.00
2017-10-26T04:36:03.063Z,0.00
2017-10-26T04:37:03.047Z,0.00
2017-10-26T04:38:03.037Z,0.00
2017-10-26T04:39:03.028Z,0.00
2017-10-26T04:40:03.033Z,0.00
2017-10-26T04:41:03.011Z,0.00
2017-10-26T04:42:03.015Z,0.00
2017-10-26T04:43:02.994Z,0.00
2017-10-26T04:44:02.984Z,0.00
2017-10-26T04:45:02.975Z,0.00
2017-10-26T04:46:02.986Z,0.00
2017-10-26T04:47:02.958Z,0.00
2017-10-26T04:48:02.948Z,0.00
2017-10-26T04:49:02.944Z,0.00
2017-10-26T04:50:02.932Z,0.00
2017-10-26T04:51:02.923Z,0.00
2017-10-26T04:52:02.915Z,0.00
2017-10-26T04:53:02.912Z,0.00
2017-10-26T04:54:02.896Z,0.00
2017-10-26T04:55:02.897Z,0.00
2017-10-26T04:56:02.881Z,0.00
2017-10-26T04:57:02.870Z,0.00
2017-10-26T04:58:02.862Z,0.00
2017-10-26T04:59:02.853Z,0.00
2017-10-26T05:00:02.855Z,0.00
2017-10-26T05:01:02.835Z,0.00
2017-10-26T05:02:02.832Z,0.00
2017-10-26T05:03:02.824Z,0.00
2017-10-26T05:04:02.812Z,0.00
2017-10-26T05:05:02.809Z,0.00
2017-10-26T05:06:02.795Z,0.00
2017-10-26T05:07:02.783Z,0.00
2017-10-26T05:08:02.773Z,0.00
2017-10-26T05:09:02.765Z,0.00
2017-10-26T05:10:02.757Z,0.00
2017-10-26T05:11:02.749Z,0.00
2017-10-26T05:12:02.745Z,0.00
2017-10-26T05:13:02.733Z,0.00
2017-10-26T05:14:02.729Z,0.00
2017-10-26T05:15:02.724Z,0.00
2017-10-26T05:16:02.703Z,0.00
2017-10-26T05:17:02.694Z,0.00
2017-10-26T05:18:02.685Z,0.00
2017-10-26T05:19:02.680Z,0.00
2017-10-26T05:20:02.678Z,0.00
2017-10-26T05:21:02.660Z,0.00
2017-10-26T05:22:02.650Z,0.00
2017-10-26T05:23:02.647Z,0.00
2017-10-26T05:24:02.636Z,0.00
2017-10-26T05:25:02.629Z,0.00
2017-10-26T05:26:02.621Z,0.00
2017-10-26T05:27:02.610Z,0.00
2017-10-26T05:28:02.601Z,0.00
2017-10-26T05:29:02.591Z,0.00
2017-10-26T05:30:02.580Z,0.00
2017-10-26T05:31:02.579Z,0.00
2017-10-26T05:32:02.563Z,0.00
2017-10-26T05:33:02.558Z,0.00
2017-10-26T05:34:02.547Z,0.00
2017-10-26T05:35:02.544Z,0.00
2017-10-26T05:36:02.538Z,0.00
2017-10-26T05:37:02.517Z,0.00
2017-10-26T05:38:02.510Z,0.00
2017-10-26T05:39:02.501Z,0.00
2017-10-26T05:40:02.504Z,0.00
2017-10-26T05:41:02.486Z,0.00
2017-10-26T05:42:02.475Z,0.00
2017-10-26T05:43:02.473Z,0.00
2017-10-26T05:44:02.460Z,0.00
2017-10-26T05:45:02.454Z,0.00
2017-10-26T05:46:02.441Z,4.00
2017-10-26T05:47:02.432Z,4.00
2017-10-26T05:48:02.423Z,4.00
2017-10-26T05:49:02.422Z,4.00
2017-10-26T05:50:02.406Z,4.00
2017-10-26T05:51:02.400Z,8.00
2017-10-26T05:52:02.394Z,8.00
2017-10-26T05:53:02.384Z,8.00
2017-10-26T05:54:03.251Z,12.00
2017-10-26T05:55:02.363Z,12.00
2017-10-26T05:56:02.355Z,16.00
2017-10-26T05:57:02.342Z,16.00
2017-10-26T05:58:02.336Z,20.00
2017-10-26T05:59:02.333Z,20.00
2017-10-26T06:00:02.317Z,24.00
2017-10-26T06:01:02.307Z,28.00
2017-10-26T06:02:02.302Z,36.00
2017-10-26T06:03:02.296Z,40.00
2017-10-26T06:04:02.284Z,44.00
2017-10-26T06:05:02.272Z,48.00
2017-10-26T06:06:02.287Z,52.00
2017-10-26T06:07:02.258Z,56.00
2017-10-26T06:08:02.247Z,60.00
2017-10-26T06:09:02.237Z,68.00
2017-10-26T06:10:02.229Z,76.00
2017-10-26T06:11:02.221Z,80.00
2017-10-26T06:12:02.213Z,92.00
2017-10-26T06:13:02.206Z,100.00
2017-10-26T06:14:02.194Z,108.00
2017-10-26T06:15:02.185Z,100.00
2017-10-26T06:16:02.174Z,112.00
2017-10-26T06:17:02.180Z,124.00
2017-10-26T06:18:02.159Z,124.00
2017-10-26T06:19:02.149Z,140.00
2017-10-26T06:20:02.147Z,152.00
2017-10-26T06:21:02.132Z,168.00
2017-10-26T06:22:02.125Z,176.00
2017-10-26T06:23:02.120Z,204.00
2017-10-26T06:24:02.105Z,224.00
2017-10-26T06:25:02.097Z,232.00
2017-10-26T06:26:02.097Z,224.00
2017-10-26T06:27:02.081Z,208.00
2017-10-26T06:28:02.071Z,204.00
2017-10-26T06:29:02.066Z,204.00
2017-10-26T06:30:02.051Z,220.00
2017-10-26T06:31:02.044Z,212.00
2017-10-26T06:32:02.033Z,200.00
2017-10-26T06:33:02.030Z,216.00
2017-10-26T06:34:02.015Z,232.00
2017-10-26T06:35:02.008Z,220.00
2017-10-26T06:36:01.998Z,236.00
2017-10-26T06:37:01.989Z,244.00
2017-10-26T06:38:01.980Z,248.00
2017-10-26T06:39:01.974Z,252.00
2017-10-26T06:40:01.963Z,264.00
2017-10-26T06:41:01.953Z,248.00
2017-10-26T06:42:01.954Z,276.00
2017-10-26T06:43:01.936Z,280.00
2017-10-26T06:44:01.931Z,288.00
2017-10-26T06:45:01.929Z,416.00
2017-10-26T06:46:01.917Z,536.00
2017-10-26T06:47:01.902Z,620.00
2017-10-26T06:48:01.895Z,536.00
2017-10-26T06:49:01.886Z,392.00
2017-10-26T06:50:01.876Z,312.00
2017-10-26T06:51:01.867Z,440.00
2017-10-26T06:52:01.858Z,648.00
2017-10-26T06:53:01.852Z,688.00
2017-10-26T06:54:01.840Z,860.00
2017-10-26T06:55:01.833Z,1016.00
2017-10-26T06:56:01.823Z,584.00
2017-10-26T06:57:01.816Z,644.00
2017-10-26T06:58:01.806Z,668.00
2017-10-26T06:59:01.802Z,820.00
2017-10-26T07:00:01.792Z,780.00
2017-10-26T07:01:01.780Z,844.00
2017-10-26T07:02:01.774Z,684.00
2017-10-26T07:03:01.768Z,880.00
2017-10-26T07:04:01.759Z,888.00
2017-10-26T07:05:01.745Z,908.00
2017-10-26T07:06:01.743Z,772.00
2017-10-26T07:07:01.729Z,948.00
2017-10-26T07:08:01.722Z,852.00
2017-10-26T07:09:01.712Z,992.00
2017-10-26T07:10:01.704Z,936.00
2017-10-26T07:11:01.702Z,1144.00
2017-10-26T07:12:01.685Z,1144.00
2017-10-26T07:13:01.676Z,1304.00
2017-10-26T07:14:01.668Z,1448.00
2017-10-26T07:15:01.661Z,1696.00
2017-10-26T07:16:01.663Z,2080.00
2017-10-26T07:17:01.645Z,2348.00
2017-10-26T07:18:01.634Z,2488.00
2017-10-26T07:19:01.625Z,3192.00
2017-10-26T07:20:01.617Z,3456.00
2017-10-26T07:21:01.606Z,3804.00
2017-10-26T07:22:01.604Z,3820.00
2017-10-26T07:23:01.591Z,4716.00
2017-10-26T07:24:01.581Z,4888.00
2017-10-26T07:25:01.571Z,4004.00
2017-10-26T07:26:01.567Z,4024.00
2017-10-26T07:27:01.558Z,3932.00
2017-10-26T07:28:01.548Z,3956.00
2017-10-26T07:29:01.567Z,3976.00
2017-10-26T07:30:01.531Z,3488.00
2017-10-26T07:31:01.527Z,3180.00
2017-10-26T07:32:01.519Z,3108.00
2017-10-26T07:33:01.506Z,3584.00
2017-10-26T07:34:01.498Z,4288.00
2017-10-26T07:35:01.493Z,4748.00
2017-10-26T07:36:01.480Z,4892.00
2017-10-26T07:37:01.472Z,4624.00
2017-10-26T07:38:01.466Z,4632.00
2017-10-26T07:39:01.454Z,4500.00
2017-10-26T07:40:01.454Z,4352.00
2017-10-26T07:41:01.451Z,4280.00
2017-10-26T07:42:01.431Z,4268.00
2017-10-26T07:43:01.422Z,4036.00
2017-10-26T07:44:01.415Z,4228.00
2017-10-26T07:45:01.406Z,4296.00
2017-10-26T07:46:01.397Z,4728.00
2017-10-26T07:47:01.398Z,5180.00
2017-10-26T07:48:01.381Z,5716.00
2017-10-26T07:49:01.372Z,6012.00
2017-10-26T07:50:01.367Z,5988.00
2017-10-26T07:51:01.356Z,5188.00
2017-10-26T07:52:01.349Z,4152.00
2017-10-26T07:53:01.343Z,4360.00
2017-10-26T07:54:01.341Z,4372.00
2017-10-26T07:55:01.325Z,4356.00
2017-10-26T07:56:01.315Z,4564.00
2017-10-26T07:57:01.308Z,4396.00
2017-10-26T07:58:01.299Z,3988.00
2017-10-26T07:59:01.293Z,3580.00
2017-10-26T08:00:01.281Z,3560.00
2017-10-26T08:01:01.274Z,3704.00
2017-10-26T08:02:01.264Z,3600.00
2017-10-26T08:03:01.261Z,3784.00
2017-10-26T08:04:01.249Z,4008.00
2017-10-26T08:05:01.243Z,4472.00
2017-10-26T08:06:01.232Z,4516.00
2017-10-26T08:07:01.230Z,4768.00
2017-10-26T08:08:01.217Z,4860.00
2017-10-26T08:09:01.208Z,5076.00
2017-10-26T08:10:01.202Z,4924.00
2017-10-26T08:11:01.192Z,4864.00
2017-10-26T08:12:01.188Z,5512.00
2017-10-26T08:13:01.178Z,5984.00
2017-10-26T08:14:01.253Z,6380.00
2017-10-26T08:15:01.161Z,6292.00
2017-10-26T08:16:01.154Z,5652.00
2017-10-26T08:17:01.159Z,5676.00
2017-10-26T08:18:01.135Z,5836.00
2017-10-26T08:19:01.128Z,5436.00
2017-10-26T08:20:01.121Z,6060.00
2017-10-26T08:21:01.118Z,6364.00
2017-10-26T08:22:01.114Z,7148.00
2017-10-26T08:23:01.097Z,7684.00
2017-10-26T08:24:01.095Z,7548.00
2017-10-26T08:25:01.078Z,6268.00
2017-10-26T08:26:01.077Z,6748.00
2017-10-26T08:27:01.064Z,7420.00
2017-10-26T08:28:01.057Z,5128.00
2017-10-26T08:29:01.051Z,6012.00
2017-10-26T08:30:01.040Z,6424.00
2017-10-26T08:31:01.037Z,6284.00
2017-10-26T08:32:01.025Z,6112.00
2017-10-26T08:33:01.028Z,6192.00
2017-10-26T08:34:01.009Z,6076.00
2017-10-26T08:35:01.003Z,5996.00
2017-10-26T08:36:00.991Z,5344.00
2017-10-26T08:37:00.984Z,4792.00
2017-10-26T08:38:00.977Z,4780.00
2017-10-26T08:39:00.969Z,5372.00
2017-10-26T08:40:00.964Z,6824.00
2017-10-26T08:41:00.958Z,7428.00
2017-10-26T08:42:00.950Z,6800.00
2017-10-26T08:43:00.936Z,5684.00
2017-10-26T08:44:00.930Z,6232.00
2017-10-26T08:45:00.923Z,6484.00
2017-10-26T08:46:00.913Z,6092.00
2017-10-26T08:47:00.905Z,5152.00
2017-10-26T08:48:00.902Z,4936.00
2017-10-26T08:49:00.889Z,5480.00
2017-10-26T08:50:00.883Z,6496.00
2017-10-26T08:51:00.873Z,5648.00
2017-10-26T08:52:00.867Z,4652.00
2017-10-26T08:53:00.858Z,6056.00
2017-10-26T08:54:00.851Z,5744.00
2017-10-26T08:55:00.841Z,6420.00
2017-10-26T08:56:00.836Z,6232.00
2017-10-26T08:57:00.827Z,4924.00
2017-10-26T08:58:00.824Z,5564.00
2017-10-26T08:59:00.813Z,5584.00
2017-10-26T09:00:00.807Z,5512.00
2017-10-26T09:01:00.797Z,6332.00
2017-10-26T09:02:00.787Z,5540.00
2017-10-26T09:03:00.781Z,4840.00
2017-10-26T09:04:00.773Z,3932.00
2017-10-26T09:05:00.765Z,3660.00
2017-10-26T09:06:00.756Z,4392.00
2017-10-26T09:07:00.749Z,4244.00
2017-10-26T09:08:00.746Z,3708.00
2017-10-26T09:09:00.734Z,4028.00
2017-10-26T09:10:00.728Z,3916.00
2017-10-26T09:11:00.730Z,3884.00
2017-10-26T09:12:00.710Z,3636.00
2017-10-26T09:13:00.716Z,4008.00
2017-10-26T09:14:00.694Z,3560.00
2017-10-26T09:15:00.687Z,2896.00
2017-10-26T09:16:00.680Z,3652.00
2017-10-26T09:17:00.676Z,3904.00
2017-10-26T09:18:00.665Z,3908.00
2017-10-26T09:19:00.655Z,3816.00
2017-10-26T09:20:00.649Z,4656.00
2017-10-26T09:21:00.640Z,5248.00
2017-10-26T09:22:00.634Z,4760.00
2017-10-26T09:23:00.625Z,5192.00
2017-10-26T09:24:00.620Z,3960.00
2017-10-26T09:25:00.613Z,5516.00
2017-10-26T09:26:00.602Z,4800.00
2017-10-26T09:27:00.594Z,4788.00
2017-10-26T09:28:00.591Z,3704.00
2017-10-26T09:29:00.581Z,3512.00
2017-10-26T09:30:00.576Z,3992.00
2017-10-26T09:31:00.565Z,5916.00
2017-10-26T09:32:00.557Z,5796.00
2017-10-26T09:33:00.549Z,6408.00
2017-10-26T09:34:00.551Z,4636.00
2017-10-26T09:35:00.534Z,4004.00
2017-10-26T09:36:00.527Z,5120.00
2017-10-26T09:37:00.518Z,4768.00
2017-10-26T09:38:00.541Z,4196.00
2017-10-26T09:39:00.505Z,5452.00
2017-10-26T09:40:00.496Z,4704.00
2017-10-26T09:41:00.486Z,5748.00
2017-10-26T09:42:00.483Z,7508.00
2017-10-26T09:43:00.472Z,9112.00
2017-10-26T09:44:00.474Z,6140.00
2017-10-26T09:45:00.456Z,6428.00
2017-10-26T09:46:00.450Z,6052.00
2017-10-26T09:47:00.453Z,6196.00
2017-10-26T09:48:00.435Z,6672.00
2017-10-26T09:49:00.429Z,6584.00
2017-10-26T09:50:00.419Z,5392.00
2017-10-26T09:51:00.412Z,4096.00
2017-10-26T09:52:00.402Z,4892.00
2017-10-26T09:53:00.395Z,7520.00
2017-10-26T09:54:00.387Z,9060.00
2017-10-26T09:55:00.383Z,11528.00
2017-10-26T09:56:00.374Z,14064.00
2017-10-26T09:57:00.367Z,14800.00
2017-10-26T09:58:00.357Z,14660.00
2017-10-26T09:59:00.352Z,13932.00
2017-10-26T10:00:00.344Z,14684.00
2017-10-26T10:01:00.338Z,13940.00
2017-10-26T10:02:00.328Z,13564.00
2017-10-26T10:03:00.333Z,14692.00
2017-10-26T10:04:00.314Z,13556.00
2017-10-26T10:05:00.309Z,12748.00
2017-10-26T10:06:00.302Z,14472.00
2017-10-26T10:07:00.290Z,13656.00
2017-10-26T10:08:00.310Z,11928.00
2017-10-26T10:09:00.275Z,11588.00
2017-10-26T10:10:00.269Z,9892.00
2017-10-26T10:11:00.264Z,10740.00
2017-10-26T10:12:00.255Z,10376.00
2017-10-26T10:13:00.247Z,10580.00
2017-10-26T10:14:00.241Z,11240.00
2017-10-26T10:15:00.233Z,9500.00
2017-10-26T10:16:00.236Z,9504.00
2017-10-26T10:17:00.220Z,9432.00
2017-10-26T10:18:00.235Z,9352.00
2017-10-26T10:19:00.206Z,11840.00
2017-10-26T10:20:00.200Z,9920.00
2017-10-26T10:21:00.211Z,8212.00
2017-10-26T10:22:00.183Z,7012.00
2017-10-26T10:23:00.179Z,6968.00
2017-10-26T10:24:00.172Z,7928.00
2017-10-26T10:25:00.192Z,8304.00
2017-10-26T10:26:00.163Z,8436.00
2017-10-26T10:27:00.150Z,9932.00
2017-10-26T10:28:00.144Z,12284.00
2017-10-26T10:29:00.135Z,13160.00
2017-10-26T10:30:00.134Z,17632.00
2017-10-26T10:31:00.128Z,16100.00
2017-10-26T10:32:00.115Z,13684.00
2017-10-26T10:33:00.107Z,10448.00
2017-10-26T10:34:00.104Z,11352.00
2017-10-26T10:35:00.094Z,11392.00
2017-10-26T10:36:00.090Z,11052.00
2017-10-26T10:37:00.082Z,13136.00
2017-10-26T10:38:00.078Z,18112.00
2017-10-26T10:39:00.105Z,21664.00
2017-10-26T10:40:00.060Z,37120.00
2017-10-26T10:41:00.053Z,29856.00
2017-10-26T10:42:00.047Z,33536.00
2017-10-26T10:43:00.041Z,53184.00
2017-10-26T10:44:00.033Z,44288.00
2017-10-26T10:45:00.027Z,54784.00
2017-10-26T10:46:00.024Z,21440.00
2017-10-26T10:47:00.017Z,50272.00
2017-10-26T10:48:00.017Z,20192.00
2017-10-26T10:49:00.006Z,22912.00
2017-10-26T10:49:59.998Z,33184.00
2017-10-26T10:51:00.035Z,30656.00
2017-10-26T10:51:59.992Z,40544.00
2017-10-26T10:52:59.982Z,44544.00
2017-10-26T10:53:59.978Z,48096.00
2017-10-26T10:54:59.975Z,44768.00
2017-10-26T10:55:59.973Z,41440.00
2017-10-26T10:56:59.962Z,19712.00
2017-10-26T10:57:59.963Z,29664.00
2017-10-26T10:58:59.958Z,39456.00
2017-10-26T10:59:59.965Z,28320.00
2017-10-26T11:01:00.014Z,27680.00
2017-10-26T11:01:59.948Z,33248.00
2017-10-26T11:02:59.938Z,31616.00
2017-10-26T11:03:59.943Z,35904.00
2017-10-26T11:04:59.935Z,32224.00
2017-10-26T11:05:59.928Z,20672.00
2017-10-26T11:06:59.924Z,20800.00
2017-10-26T11:07:59.930Z,17728.00
2017-10-26T11:08:59.917Z,17152.00
2017-10-26T11:09:59.936Z,22048.00
2017-10-26T11:10:59.913Z,15680.00
2017-10-26T11:11:59.907Z,16152.00
2017-10-26T11:12:59.912Z,25664.00
2017-10-26T11:13:59.902Z,25088.00
2017-10-26T11:14:59.899Z,14576.00
2017-10-26T11:15:59.894Z,22624.00
2017-10-26T11:16:59.893Z,28608.00
2017-10-26T11:17:59.891Z,16544.00
2017-10-26T11:18:59.884Z,13816.00
2017-10-26T11:19:59.880Z,12916.00
2017-10-26T11:20:59.876Z,12464.00
2017-10-26T11:21:59.874Z,15644.00
2017-10-26T11:22:59.874Z,13144.00
2017-10-26T11:23:59.870Z,15940.00
2017-10-26T11:24:59.862Z,13956.00
2017-10-26T11:25:59.858Z,17184.00
2017-10-26T11:26:59.853Z,16448.00
2017-10-26T11:27:59.850Z,17312.00
2017-10-26T11:28:59.862Z,19840.00
2017-10-26T11:29:59.844Z,22432.00
2017-10-26T11:30:59.836Z,22208.00
2017-10-26T11:31:59.832Z,26624.00
2017-10-26T11:32:59.828Z,18912.00
2017-10-26T11:33:59.837Z,12928.00
2017-10-26T11:34:59.825Z,19936.00
2017-10-26T11:35:59.816Z,12928.00
2017-10-26T11:36:59.811Z,12676.00
2017-10-26T11:37:59.805Z,14512.00
2017-10-26T11:38:59.808Z,18720.00
2017-10-26T11:39:59.798Z,22048.00
2017-10-26T11:40:59.795Z,18848.00
2017-10-26T11:41:59.789Z,13188.00
2017-10-26T11:42:59.790Z,11416.00
2017-10-26T11:43:59.782Z,11340.00
2017-10-26T11:44:59.777Z,13228.00
2017-10-26T11:45:59.774Z,14064.00
2017-10-26T11:46:59.781Z,20128.00
2017-10-26T11:47:59.765Z,19392.00
2017-10-26T11:48:59.759Z,20736.00
2017-10-26T11:49:59.754Z,18880.00
2017-10-26T11:50:59.754Z,18880.00
2017-10-26T11:51:59.751Z,18048.00
2017-10-26T11:52:59.746Z,17792.00
2017-10-26T11:53:59.738Z,17440.00
2017-10-26T11:54:59.739Z,14464.00
2017-10-26T11:55:59.733Z,11792.00
2017-10-26T11:56:59.725Z,10612.00
2017-10-26T11:57:59.722Z,7696.00
2017-10-26T11:58:59.723Z,6488.00
2017-10-26T11:59:59.714Z,6252.00
2017-10-26T12:00:59.743Z,6700.00
2017-10-26T12:01:59.709Z,5884.00
2017-10-26T12:02:59.700Z,5636.00
2017-10-26T12:03:59.693Z,7164.00
2017-10-26T12:04:59.690Z,10052.00
2017-10-26T12:05:59.686Z,12468.00
2017-10-26T12:06:59.682Z,13896.00
2017-10-26T12:07:59.676Z,14872.00
2017-10-26T12:08:59.670Z,15140.00
2017-10-26T12:09:59.697Z,14784.00
2017-10-26T12:10:59.663Z,15592.00
2017-10-26T12:11:59.659Z,15736.00
2017-10-26T12:12:59.650Z,15208.00
2017-10-26T12:13:59.650Z,14936.00
2017-10-26T12:14:59.641Z,15404.00
2017-10-26T12:15:59.639Z,14736.00
2017-10-26T12:16:59.638Z,14344.00
2017-10-26T12:17:59.629Z,14220.00
2017-10-26T12:18:59.625Z,13964.00
2017-10-26T12:19:59.628Z,13648.00
2017-10-26T12:20:59.615Z,14176.00
2017-10-26T12:21:59.610Z,14644.00
2017-10-26T12:22:59.608Z,14680.00
2017-10-26T12:23:59.601Z,14384.00
2017-10-26T12:24:59.601Z,14192.00
2017-10-26T12:25:59.604Z,15512.00
2017-10-26T12:26:59.588Z,15772.00
2017-10-26T12:27:59.583Z,14340.00
2017-10-26T12:28:59.581Z,14204.00
2017-10-26T12:29:59.571Z,13292.00
2017-10-26T12:30:59.568Z,12928.00
2017-10-26T12:31:59.563Z,12656.00
2017-10-26T12:32:59.569Z,12616.00
2017-10-26T12:33:59.552Z,12400.00
2017-10-26T12:34:59.555Z,12108.00
2017-10-26T12:35:59.553Z,12224.00